sensor_id;sensor_type;location;lat;lon;timestamp;pressure;altitude;pressure_sealevel;temperature;humidity
53916;BME280;39827;49.652;18.770;2024-01-07T00:02:19;74364.06;;;-149.71;84.30
53916;BME280;39827;49.652;18.770;2024-01-07T00:04:44;74362.06;;;-149.71;83.99
53916;BME280;39827;49.652;18.770;2024-01-07T00:07:10;74376.13;;;-149.71;83.82
53916;BME280;39827;49.652;18.770;2024-01-07T00:09:35;74364.06;;;-149.71;83.95
53916;BME280;39827;49.652;18.770;2024-01-07T00:12:00;74370.09;;;-149.71;84.33
53916;BME280;39827;49.652;18.770;2024-01-07T00:14:26;74372.13;;;-149.71;84.02
53916;BME280;39827;49.652;18.770;2024-01-07T00:16:51;74384.16;;;-149.71;83.90
53916;BME280;39827;49.652;18.770;2024-01-07T00:19:17;74382.16;;;-149.71;84.04
53916;BME280;39827;49.652;18.770;2024-01-07T00:21:42;74374.13;;;-149.71;84.44
53916;BME280;39827;49.652;18.770;2024-01-07T00:24:07;74376.13;;;-149.71;83.96
53916;BME280;39827;49.652;18.770;2024-01-07T00:26:33;74378.13;;;-149.71;84.22
53916;BME280;39827;49.652;18.770;2024-01-07T00:28:58;74376.13;;;-149.71;83.50
53916;BME280;39827;49.652;18.770;2024-01-07T00:31:23;74392.19;;;-149.71;83.62
53916;BME280;39827;49.652;18.770;2024-01-07T00:33:49;74388.19;;;-149.71;83.55
53916;BME280;39827;49.652;18.770;2024-01-07T00:36:14;74396.22;;;-149.71;83.40
53916;BME280;39827;49.652;18.770;2024-01-07T00:38:40;74392.19;;;-149.71;83.33
53916;BME280;39827;49.652;18.770;2024-01-07T00:41:05;74380.16;;;-149.71;83.05
53916;BME280;39827;49.652;18.770;2024-01-07T00:43:32;74394.22;;;-149.71;83.28
53916;BME280;39827;49.652;18.770;2024-01-07T00:45:57;74406.28;;;-149.71;82.84
53916;BME280;39827;49.652;18.770;2024-01-07T00:48:22;74406.28;;;-149.71;82.21
53916;BME280;39827;49.652;18.770;2024-01-07T00:50:48;74412.28;;;-149.71;82.68
53916;BME280;39827;49.652;18.770;2024-01-07T00:53:13;74414.31;;;-149.71;83.25
53916;BME280;39827;49.652;18.770;2024-01-07T00:55:38;74408.28;;;-149.71;82.68
53916;BME280;39827;49.652;18.770;2024-01-07T00:58:04;74404.25;;;-149.71;82.40
53916;BME280;39827;49.652;18.770;2024-01-07T01:00:29;74400.25;;;-149.71;82.14
53916;BME280;39827;49.652;18.770;2024-01-07T01:02:55;74402.25;;;-149.71;81.93
53916;BME280;39827;49.652;18.770;2024-01-07T01:05:20;74418.31;;;-149.71;82.08
53916;BME280;39827;49.652;18.770;2024-01-07T01:07:46;74424.34;;;-149.71;82.22
53916;BME280;39827;49.652;18.770;2024-01-07T01:10:11;74436.41;;;-149.71;82.28
53916;BME280;39827;49.652;18.770;2024-01-07T01:12:38;74452.47;;;-149.71;82.24
53916;BME280;39827;49.652;18.770;2024-01-07T01:15:04;74440.44;;;-149.71;82.23
53916;BME280;39827;49.652;18.770;2024-01-07T01:17:29;74448.47;;;-149.71;82.28
53916;BME280;39827;49.652;18.770;2024-01-07T01:19:55;74432.38;;;-149.71;82.01
53916;BME280;39827;49.652;18.770;2024-01-07T01:22:20;74446.44;;;-149.71;82.25
53916;BME280;39827;49.652;18.770;2024-01-07T01:24:46;74462.53;;;-149.71;82.41
53916;BME280;39827;49.652;18.770;2024-01-07T01:27:14;74460.53;;;-149.71;82.50
53916;BME280;39827;49.652;18.770;2024-01-07T01:29:40;74464.53;;;-149.71;82.32
53916;BME280;39827;49.652;18.770;2024-01-07T01:32:06;74462.53;;;-149.71;82.05
53916;BME280;39827;49.652;18.770;2024-01-07T01:34:31;74462.53;;;-149.71;81.69
53916;BME280;39827;49.652;18.770;2024-01-07T01:36:57;74468.56;;;-149.71;81.92
53916;BME280;39827;49.652;18.770;2024-01-07T01:39:22;74476.59;;;-149.71;82.15
53916;BME280;39827;49.652;18.770;2024-01-07T01:41:48;74468.56;;;-149.71;82.37
53916;BME280;39827;49.652;18.770;2024-01-07T01:44:13;74488.66;;;-149.71;82.64
53916;BME280;39827;49.652;18.770;2024-01-07T01:46:39;74464.53;;;-149.71;82.58
53916;BME280;39827;49.652;18.770;2024-01-07T01:49:04;74462.53;;;-149.71;82.01
53916;BME280;39827;49.652;18.770;2024-01-07T01:51:30;74468.56;;;-149.71;81.61
53916;BME280;39827;49.652;18.770;2024-01-07T01:53:55;74474.59;;;-149.71;82.08
53916;BME280;39827;49.652;18.770;2024-01-07T01:56:24;74482.63;;;-149.71;82.14
53916;BME280;39827;49.652;18.770;2024-01-07T01:58:51;74468.56;;;-149.71;82.01
53916;BME280;39827;49.652;18.770;2024-01-07T02:01:17;74488.66;;;-149.71;82.00
53916;BME280;39827;49.652;18.770;2024-01-07T02:03:43;74490.66;;;-149.71;81.91
53916;BME280;39827;49.652;18.770;2024-01-07T02:06:09;74496.69;;;-149.71;81.76
53916;BME280;39827;49.652;18.770;2024-01-07T02:08:34;74504.72;;;-149.71;81.74
53916;BME280;39827;49.652;18.770;2024-01-07T02:11:14;74492.66;;;-149.71;81.62
53916;BME280;39827;49.652;18.770;2024-01-07T02:13:40;74508.75;;;-149.71;82.29
53916;BME280;39827;49.652;18.770;2024-01-07T02:16:05;74496.69;;;-149.71;82.27
53916;BME280;39827;49.652;18.770;2024-01-07T02:18:30;74510.75;;;-149.71;82.12
53916;BME280;39827;49.652;18.770;2024-01-07T02:20:56;74498.69;;;-149.71;81.82
53916;BME280;39827;49.652;18.770;2024-01-07T02:23:21;74506.72;;;-149.71;81.97
53916;BME280;39827;49.652;18.770;2024-01-07T02:25:47;74508.75;;;-149.71;81.92
53916;BME280;39827;49.652;18.770;2024-01-07T02:28:12;74514.78;;;-149.71;81.48
53916;BME280;39827;49.652;18.770;2024-01-07T02:30:37;74522.81;;;-149.71;81.30
53916;BME280;39827;49.652;18.770;2024-01-07T02:33:03;74508.75;;;-149.71;81.68
53916;BME280;39827;49.652;18.770;2024-01-07T02:35:29;74508.75;;;-149.71;80.85
53916;BME280;39827;49.652;18.770;2024-01-07T02:37:54;74520.78;;;-149.71;80.44
53916;BME280;39827;49.652;18.770;2024-01-07T02:40:19;74528.84;;;-149.71;80.97
53916;BME280;39827;49.652;18.770;2024-01-07T02:42:45;74526.81;;;-149.71;81.23
53916;BME280;39827;49.652;18.770;2024-01-07T02:45:10;74524.81;;;-149.71;81.10
53916;BME280;39827;49.652;18.770;2024-01-07T02:47:36;74540.88;;;-149.71;81.17
53916;BME280;39827;49.652;18.770;2024-01-07T02:50:01;74544.91;;;-149.71;81.04
53916;BME280;39827;49.652;18.770;2024-01-07T02:52:26;74528.84;;;-149.71;81.25
53916;BME280;39827;49.652;18.770;2024-01-07T02:54:52;74538.88;;;-149.71;81.32
53916;BME280;39827;49.652;18.770;2024-01-07T02:57:17;74556.97;;;-149.71;81.54
53916;BME280;39827;49.652;18.770;2024-01-07T02:59:42;74552.94;;;-149.71;80.94
53916;BME280;39827;49.652;18.770;2024-01-07T03:02:08;74538.88;;;-149.71;80.48
53916;BME280;39827;49.652;18.770;2024-01-07T03:04:33;74548.94;;;-149.71;81.24
53916;BME280;39827;49.652;18.770;2024-01-07T03:06:58;74538.88;;;-149.71;80.60
53916;BME280;39827;49.652;18.770;2024-01-07T03:09:24;74542.91;;;-149.71;80.67
53916;BME280;39827;49.652;18.770;2024-01-07T03:11:49;74538.88;;;-149.71;80.27
53916;BME280;39827;49.652;18.770;2024-01-07T03:14:15;74546.91;;;-149.71;80.52
53916;BME280;39827;49.652;18.770;2024-01-07T03:16:43;74550.94;;;-149.71;80.94
53916;BME280;39827;49.652;18.770;2024-01-07T03:19:08;74565.00;;;-149.71;80.51
53916;BME280;39827;49.652;18.770;2024-01-07T03:21:33;74567.00;;;-149.71;80.05
53916;BME280;39827;49.652;18.770;2024-01-07T03:23:59;74556.97;;;-149.71;78.96
53916;BME280;39827;49.652;18.770;2024-01-07T03:26:24;74571.03;;;-149.71;79.56
53916;BME280;39827;49.652;18.770;2024-01-07T03:28:49;74565.00;;;-149.71;79.94
53916;BME280;39827;49.652;18.770;2024-01-07T03:31:16;74575.03;;;-149.71;80.22
53916;BME280;39827;49.652;18.770;2024-01-07T03:33:43;74581.06;;;-149.71;80.43
53916;BME280;39827;49.652;18.770;2024-01-07T03:36:13;74569.03;;;-149.71;80.45
53916;BME280;39827;49.652;18.770;2024-01-07T03:38:40;74571.03;;;-149.71;80.52
53916;BME280;39827;49.652;18.770;2024-01-07T03:41:06;74579.06;;;-149.71;80.37
53916;BME280;39827;49.652;18.770;2024-01-07T03:43:31;74583.09;;;-149.71;80.20
53916;BME280;39827;49.652;18.770;2024-01-07T03:45:56;74591.13;;;-149.71;80.35
53916;BME280;39827;49.652;18.770;2024-01-07T03:48:22;74593.13;;;-149.71;80.09
53916;BME280;39827;49.652;18.770;2024-01-07T03:50:47;74605.19;;;-149.71;80.36
53916;BME280;39827;49.652;18.770;2024-01-07T03:53:13;74607.19;;;-149.71;80.68
53916;BME280;39827;49.652;18.770;2024-01-07T03:55:39;74609.22;;;-149.71;80.38
53916;BME280;39827;49.652;18.770;2024-01-07T03:58:05;74621.25;;;-149.71;80.01
53916;BME280;39827;49.652;18.770;2024-01-07T04:00:31;74625.28;;;-149.71;79.84
53916;BME280;39827;49.652;18.770;2024-01-07T04:02:56;74623.28;;;-149.71;80.74
53916;BME280;39827;49.652;18.770;2024-01-07T04:05:21;74617.25;;;-149.71;80.95
53916;BME280;39827;49.652;18.770;2024-01-07T04:07:47;74625.28;;;-149.71;81.17
53916;BME280;39827;49.652;18.770;2024-01-07T04:10:12;74625.28;;;-149.71;81.04
53916;BME280;39827;49.652;18.770;2024-01-07T04:12:38;74637.34;;;-149.71;80.38
53916;BME280;39827;49.652;18.770;2024-01-07T04:15:04;74617.25;;;-149.71;80.23
53916;BME280;39827;49.652;18.770;2024-01-07T04:17:29;74635.31;;;-149.71;80.23
53916;BME280;39827;49.652;18.770;2024-01-07T04:19:55;74633.31;;;-149.71;80.00
53916;BME280;39827;49.652;18.770;2024-01-07T04:22:21;74645.38;;;-149.71;80.37
53916;BME280;39827;49.652;18.770;2024-01-07T04:24:46;74635.31;;;-149.71;80.67
53916;BME280;39827;49.652;18.770;2024-01-07T04:27:11;74641.34;;;-149.71;80.64
53916;BME280;39827;49.652;18.770;2024-01-07T04:29:37;74643.38;;;-149.71;80.37
53916;BME280;39827;49.652;18.770;2024-01-07T04:32:03;74651.41;;;-149.71;80.06
53916;BME280;39827;49.652;18.770;2024-01-07T04:34:28;74657.44;;;-149.71;80.20
53916;BME280;39827;49.652;18.770;2024-01-07T04:36:53;74667.47;;;-149.71;80.57
53916;BME280;39827;49.652;18.770;2024-01-07T04:39:19;74667.47;;;-149.71;80.88
53916;BME280;39827;49.652;18.770;2024-01-07T04:41:44;74663.47;;;-149.71;80.30
53916;BME280;39827;49.652;18.770;2024-01-07T04:44:09;74665.47;;;-149.71;79.98
53916;BME280;39827;49.652;18.770;2024-01-07T04:46:38;74655.41;;;-149.71;80.07
53916;BME280;39827;49.652;18.770;2024-01-07T04:49:03;74665.47;;;-149.71;80.42
53916;BME280;39827;49.652;18.770;2024-01-07T04:51:31;74667.47;;;-149.71;80.81
53916;BME280;39827;49.652;18.770;2024-01-07T04:53:56;74683.56;;;-149.71;80.09
53916;BME280;39827;49.652;18.770;2024-01-07T04:56:21;74673.50;;;-149.71;80.41
53916;BME280;39827;49.652;18.770;2024-01-07T04:58:47;74685.56;;;-149.71;79.87
53916;BME280;39827;49.652;18.770;2024-01-07T05:01:12;74677.53;;;-149.71;79.75
53916;BME280;39827;49.652;18.770;2024-01-07T05:03:37;74679.53;;;-149.71;80.36
53916;BME280;39827;49.652;18.770;2024-01-07T05:06:03;74689.56;;;-149.71;79.45
53916;BME280;39827;49.652;18.770;2024-01-07T05:08:29;74705.66;;;-149.71;79.27
53916;BME280;39827;49.652;18.770;2024-01-07T05:10:55;74713.69;;;-149.71;79.39
53916;BME280;39827;49.652;18.770;2024-01-07T05:13:21;74709.66;;;-149.71;79.22
53916;BME280;39827;49.652;18.770;2024-01-07T05:15:46;74713.69;;;-149.71;79.79
53916;BME280;39827;49.652;18.770;2024-01-07T05:18:20;74731.78;;;-149.71;79.98
53916;BME280;39827;49.652;18.770;2024-01-07T05:20:45;74717.72;;;-149.71;80.15
53916;BME280;39827;49.652;18.770;2024-01-07T05:23:11;74731.78;;;-149.71;80.02
53916;BME280;39827;49.652;18.770;2024-01-07T05:25:36;74733.78;;;-149.71;80.38
53916;BME280;39827;49.652;18.770;2024-01-07T05:28:02;74749.84;;;-149.71;80.81
53916;BME280;39827;49.652;18.770;2024-01-07T05:30:27;74747.84;;;-149.71;80.83
53916;BME280;39827;49.652;18.770;2024-01-07T05:32:53;74757.91;;;-149.71;80.48
53916;BME280;39827;49.652;18.770;2024-01-07T05:35:18;74767.94;;;-149.71;80.64
53916;BME280;39827;49.652;18.770;2024-01-07T05:37:43;74749.84;;;-149.71;80.23
53916;BME280;39827;49.652;18.770;2024-01-07T05:40:09;74761.91;;;-149.71;80.31
53916;BME280;39827;49.652;18.770;2024-01-07T05:42:35;74761.91;;;-149.71;79.72
53916;BME280;39827;49.652;18.770;2024-01-07T05:45:00;74767.94;;;-149.71;79.94
53916;BME280;39827;49.652;18.770;2024-01-07T05:47:27;74765.94;;;-149.71;80.27
53916;BME280;39827;49.652;18.770;2024-01-07T05:49:53;74767.94;;;-149.71;80.19
53916;BME280;39827;49.652;18.770;2024-01-07T05:52:18;74790.03;;;-149.71;80.12
53916;BME280;39827;49.652;18.770;2024-01-07T05:54:44;74775.97;;;-149.71;79.85
53916;BME280;39827;49.652;18.770;2024-01-07T05:57:11;74773.97;;;-149.71;80.03
53916;BME280;39827;49.652;18.770;2024-01-07T05:59:37;74794.06;;;-149.71;79.55
53916;BME280;39827;49.652;18.770;2024-01-07T06:02:02;74784.03;;;-149.71;79.59
53916;BME280;39827;49.652;18.770;2024-01-07T06:04:27;74786.03;;;-149.71;79.58
53916;BME280;39827;49.652;18.770;2024-01-07T06:06:53;74814.16;;;-149.71;80.68
53916;BME280;39827;49.652;18.770;2024-01-07T06:09:18;74808.13;;;-149.71;80.43
53916;BME280;39827;49.652;18.770;2024-01-07T06:11:44;74816.16;;;-149.71;80.14
53916;BME280;39827;49.652;18.770;2024-01-07T06:14:09;74806.13;;;-149.71;80.07
53916;BME280;39827;49.652;18.770;2024-01-07T06:16:34;74822.19;;;-149.71;79.40
53916;BME280;39827;49.652;18.770;2024-01-07T06:19:00;74822.19;;;-149.71;79.76
53916;BME280;39827;49.652;18.770;2024-01-07T06:21:25;74816.16;;;-149.71;79.75
53916;BME280;39827;49.652;18.770;2024-01-07T06:23:51;74826.22;;;-149.71;79.44
53916;BME280;39827;49.652;18.770;2024-01-07T06:26:17;74826.22;;;-149.71;79.98
53916;BME280;39827;49.652;18.770;2024-01-07T06:28:42;74822.19;;;-149.71;79.69
53916;BME280;39827;49.652;18.770;2024-01-07T06:31:08;74824.22;;;-149.71;79.58
53916;BME280;39827;49.652;18.770;2024-01-07T06:33:33;74826.22;;;-149.71;79.47
53916;BME280;39827;49.652;18.770;2024-01-07T06:36:00;74846.31;;;-149.71;78.24
53916;BME280;39827;49.652;18.770;2024-01-07T06:38:25;74850.34;;;-149.71;78.34
53916;BME280;39827;49.652;18.770;2024-01-07T06:40:51;74854.34;;;-149.71;78.57
53916;BME280;39827;49.652;18.770;2024-01-07T06:43:16;74836.25;;;-149.71;78.95
53916;BME280;39827;49.652;18.770;2024-01-07T06:45:42;74848.31;;;-149.71;79.00
53916;BME280;39827;49.652;18.770;2024-01-07T06:48:08;74860.38;;;-149.71;78.48
53916;BME280;39827;49.652;18.770;2024-01-07T06:50:34;74856.34;;;-149.71;78.35
53916;BME280;39827;49.652;18.770;2024-01-07T06:52:59;74854.34;;;-149.71;78.14
53916;BME280;39827;49.652;18.770;2024-01-07T06:55:25;74852.34;;;-149.71;77.71
53916;BME280;39827;49.652;18.770;2024-01-07T06:57:50;74868.41;;;-149.71;78.46
53916;BME280;39827;49.652;18.770;2024-01-07T07:00:16;74866.41;;;-149.71;78.17
53916;BME280;39827;49.652;18.770;2024-01-07T07:02:42;74872.44;;;-149.71;77.34
53916;BME280;39827;49.652;18.770;2024-01-07T07:05:08;74880.47;;;-149.71;77.64
53916;BME280;39827;49.652;18.770;2024-01-07T07:07:34;74896.53;;;-149.71;78.10
53916;BME280;39827;49.652;18.770;2024-01-07T07:09:59;74880.47;;;-149.71;77.60
53916;BME280;39827;49.652;18.770;2024-01-07T07:12:25;74904.59;;;-149.71;78.42
53916;BME280;39827;49.652;18.770;2024-01-07T07:14:50;74906.59;;;-149.71;77.25
53916;BME280;39827;49.652;18.770;2024-01-07T07:17:15;74902.56;;;-149.71;77.12
53916;BME280;39827;49.652;18.770;2024-01-07T07:19:41;74896.53;;;-149.71;76.94
53916;BME280;39827;49.652;18.770;2024-01-07T07:22:06;74886.50;;;-149.71;76.99
53916;BME280;39827;49.652;18.770;2024-01-07T07:24:31;74886.50;;;-149.71;77.29
53916;BME280;39827;49.652;18.770;2024-01-07T07:26:57;74874.44;;;-149.71;77.16
53916;BME280;39827;49.652;18.770;2024-01-07T07:29:22;74892.53;;;-149.71;76.61
53916;BME280;39827;49.652;18.770;2024-01-07T07:31:47;74884.50;;;-149.71;76.60
53916;BME280;39827;49.652;18.770;2024-01-07T07:34:13;74888.50;;;-149.71;75.59
53916;BME280;39827;49.652;18.770;2024-01-07T07:36:39;74902.56;;;-149.71;75.91
53916;BME280;39827;49.652;18.770;2024-01-07T07:39:06;74902.56;;;-149.71;75.68
53916;BME280;39827;49.652;18.770;2024-01-07T07:41:31;74908.59;;;-149.71;76.11
53916;BME280;39827;49.652;18.770;2024-01-07T07:43:56;74888.50;;;-149.71;76.43
53916;BME280;39827;49.652;18.770;2024-01-07T07:46:22;74902.56;;;-149.71;75.84
53916;BME280;39827;49.652;18.770;2024-01-07T07:48:47;74894.53;;;-149.71;74.33
53916;BME280;39827;49.652;18.770;2024-01-07T07:51:13;74890.53;;;-149.71;74.76
53916;BME280;39827;49.652;18.770;2024-01-07T07:53:39;74886.50;;;-149.71;73.99
53916;BME280;39827;49.652;18.770;2024-01-07T07:56:05;74878.47;;;-149.71;74.51
53916;BME280;39827;49.652;18.770;2024-01-07T07:58:31;74882.47;;;-149.71;74.68
53916;BME280;39827;49.652;18.770;2024-01-07T08:00:56;74904.59;;;-149.71;74.67
53916;BME280;39827;49.652;18.770;2024-01-07T08:03:22;74894.53;;;-149.71;75.19
53916;BME280;39827;49.652;18.770;2024-01-07T08:05:47;74906.59;;;-149.71;75.08
53916;BME280;39827;49.652;18.770;2024-01-07T08:08:13;74894.53;;;-149.71;73.97
53916;BME280;39827;49.652;18.770;2024-01-07T08:10:38;74894.53;;;-149.71;74.17
53916;BME280;39827;49.652;18.770;2024-01-07T08:13:04;74900.56;;;-149.71;73.82
53916;BME280;39827;49.652;18.770;2024-01-07T08:15:29;74900.56;;;-149.71;73.96
53916;BME280;39827;49.652;18.770;2024-01-07T08:17:54;74902.56;;;-149.71;73.98
53916;BME280;39827;49.652;18.770;2024-01-07T08:20:20;74910.63;;;-149.71;74.65
53916;BME280;39827;49.652;18.770;2024-01-07T08:22:45;74894.53;;;-149.71;75.29
53916;BME280;39827;49.652;18.770;2024-01-07T08:25:11;74890.53;;;-149.71;73.57
53916;BME280;39827;49.652;18.770;2024-01-07T08:27:36;74892.53;;;-149.71;73.15
53916;BME280;39827;49.652;18.770;2024-01-07T08:30:03;74892.53;;;-149.71;73.86
53916;BME280;39827;49.652;18.770;2024-01-07T08:32:28;74902.56;;;-149.71;73.66
53916;BME280;39827;49.652;18.770;2024-01-07T08:34:53;74906.59;;;-149.71;73.52
53916;BME280;39827;49.652;18.770;2024-01-07T08:37:19;74918.66;;;-149.71;72.07
53916;BME280;39827;49.652;18.770;2024-01-07T08:39:44;74922.66;;;-149.71;73.28
53916;BME280;39827;49.652;18.770;2024-01-07T08:42:10;74922.66;;;-149.71;73.12
53916;BME280;39827;49.652;18.770;2024-01-07T08:44:35;74914.63;;;-149.71;73.23
53916;BME280;39827;49.652;18.770;2024-01-07T08:47:00;74928.69;;;-149.71;73.66
53916;BME280;39827;49.652;18.770;2024-01-07T08:49:28;74918.66;;;-149.71;71.71
53916;BME280;39827;49.652;18.770;2024-01-07T08:51:53;74932.72;;;-149.71;72.80
53916;BME280;39827;49.652;18.770;2024-01-07T08:54:21;74926.69;;;-149.71;72.94
53916;BME280;39827;49.652;18.770;2024-01-07T08:56:46;74932.72;;;-149.71;73.41
53916;BME280;39827;49.652;18.770;2024-01-07T08:59:12;74910.63;;;-149.71;73.23
53916;BME280;39827;49.652;18.770;2024-01-07T09:01:37;74892.53;;;-149.71;72.54
53916;BME280;39827;49.652;18.770;2024-01-07T09:04:02;74898.56;;;-149.71;72.78
53916;BME280;39827;49.652;18.770;2024-01-07T09:06:28;74886.50;;;-149.71;71.77
53916;BME280;39827;49.652;18.770;2024-01-07T09:08:53;74880.47;;;-149.71;71.95
53916;BME280;39827;49.652;18.770;2024-01-07T09:11:19;74874.44;;;-149.71;71.52
53916;BME280;39827;49.652;18.770;2024-01-07T09:13:45;74864.41;;;-149.71;71.59
53916;BME280;39827;49.652;18.770;2024-01-07T09:16:13;74874.44;;;-149.71;68.82
53916;BME280;39827;49.652;18.770;2024-01-07T09:18:39;74870.41;;;-149.71;67.07
53916;BME280;39827;49.652;18.770;2024-01-07T09:21:04;74860.38;;;-149.71;68.67
53916;BME280;39827;49.652;18.770;2024-01-07T09:23:30;74862.38;;;-149.71;69.78
53916;BME280;39827;49.652;18.770;2024-01-07T09:25:55;74864.41;;;-149.71;69.43
53916;BME280;39827;49.652;18.770;2024-01-07T09:28:20;74882.47;;;-149.71;69.82
53916;BME280;39827;49.652;18.770;2024-01-07T09:30:46;74878.47;;;-149.71;70.80
53916;BME280;39827;49.652;18.770;2024-01-07T09:33:11;74852.34;;;-149.71;70.15
53916;BME280;39827;49.652;18.770;2024-01-07T09:35:36;74870.41;;;-149.71;69.17
53916;BME280;39827;49.652;18.770;2024-01-07T09:38:02;74846.31;;;-149.71;68.48
53916;BME280;39827;49.652;18.770;2024-01-07T09:40:29;74874.44;;;-149.71;69.76
53916;BME280;39827;49.652;18.770;2024-01-07T09:42:55;74866.41;;;-149.71;68.87
53916;BME280;39827;49.652;18.770;2024-01-07T09:45:21;74866.41;;;-149.71;70.17
53916;BME280;39827;49.652;18.770;2024-01-07T09:47:48;74868.41;;;-149.71;69.47
53916;BME280;39827;49.652;18.770;2024-01-07T09:50:14;74840.28;;;-149.71;69.26
53916;BME280;39827;49.652;18.770;2024-01-07T09:52:43;74828.22;;;-149.71;69.01
53916;BME280;39827;49.652;18.770;2024-01-07T09:55:26;74848.31;;;-149.71;69.08
53916;BME280;39827;49.652;18.770;2024-01-07T09:57:53;74844.31;;;-149.71;70.13
53916;BME280;39827;49.652;18.770;2024-01-07T10:00:20;74852.34;;;-149.71;69.54
53916;BME280;39827;49.652;18.770;2024-01-07T10:02:45;74882.47;;;-149.71;68.86
53916;BME280;39827;49.652;18.770;2024-01-07T10:05:11;74872.44;;;-149.71;69.60
53916;BME280;39827;49.652;18.770;2024-01-07T10:07:36;74880.47;;;-149.71;70.18
53916;BME280;39827;49.652;18.770;2024-01-07T10:10:15;74868.41;;;-149.71;70.50
53916;BME280;39827;49.652;18.770;2024-01-07T10:12:40;74868.41;;;-149.71;70.38
53916;BME280;39827;49.652;18.770;2024-01-07T10:15:06;74852.34;;;-149.71;70.74
53916;BME280;39827;49.652;18.770;2024-01-07T10:17:32;74850.34;;;-149.71;69.57
53916;BME280;39827;49.652;18.770;2024-01-07T10:19:58;74854.34;;;-149.71;68.54
53916;BME280;39827;49.652;18.770;2024-01-07T10:22:23;74870.41;;;-149.71;70.17
53916;BME280;39827;49.652;18.770;2024-01-07T10:24:51;74880.47;;;-149.71;70.24
53916;BME280;39827;49.652;18.770;2024-01-07T10:27:17;74898.56;;;-149.71;70.05
53916;BME280;39827;49.652;18.770;2024-01-07T10:29:42;74904.59;;;-149.71;70.27
53916;BME280;39827;49.652;18.770;2024-01-07T10:32:08;74886.50;;;-149.71;71.50
53916;BME280;39827;49.652;18.770;2024-01-07T10:34:35;74890.53;;;-149.71;70.53
53916;BME280;39827;49.652;18.770;2024-01-07T10:37:02;74874.44;;;-149.71;70.04
53916;BME280;39827;49.652;18.770;2024-01-07T10:39:28;74840.28;;;-149.71;70.06
53916;BME280;39827;49.652;18.770;2024-01-07T10:41:57;74854.34;;;-149.71;70.00
53916;BME280;39827;49.652;18.770;2024-01-07T10:44:30;74828.22;;;-149.71;67.76
53916;BME280;39827;49.652;18.770;2024-01-07T10:46:56;74846.31;;;-149.71;68.08
53916;BME280;39827;49.652;18.770;2024-01-07T10:49:24;74866.41;;;-149.71;67.05
53916;BME280;39827;49.652;18.770;2024-01-07T10:52:07;74842.28;;;-149.71;65.11
53916;BME280;39827;49.652;18.770;2024-01-07T10:54:35;74854.34;;;-149.71;67.07
53916;BME280;39827;49.652;18.770;2024-01-07T10:57:13;74852.34;;;-149.71;66.37
53916;BME280;39827;49.652;18.770;2024-01-07T10:59:41;74832.25;;;-149.71;65.63
53916;BME280;39827;49.652;18.770;2024-01-07T11:02:09;74862.38;;;-149.71;64.97
53916;BME280;39827;49.652;18.770;2024-01-07T11:04:56;74858.38;;;-149.71;67.32
53916;BME280;39827;49.652;18.770;2024-01-07T11:07:29;74860.38;;;-149.71;67.69
53916;BME280;39827;49.652;18.770;2024-01-07T11:10:10;74864.41;;;-149.71;66.80
53916;BME280;39827;49.652;18.770;2024-01-07T11:12:37;74868.41;;;-149.71;67.48
53916;BME280;39827;49.652;18.770;2024-01-07T11:15:03;74882.47;;;-149.71;68.97
53916;BME280;39827;49.652;18.770;2024-01-07T11:19:59;74878.47;;;-149.71;69.22
53916;BME280;39827;49.652;18.770;2024-01-07T11:22:27;74896.53;;;-149.71;68.35
53916;BME280;39827;49.652;18.770;2024-01-07T11:24:57;74898.56;;;-149.71;68.16
53916;BME280;39827;49.652;18.770;2024-01-07T11:27:24;74938.75;;;-149.71;69.35
53916;BME280;39827;49.652;18.770;2024-01-07T11:29:54;74946.78;;;-149.71;68.40
53916;BME280;39827;49.652;18.770;2024-01-07T11:32:22;74952.81;;;-149.71;69.33
53916;BME280;39827;49.652;18.770;2024-01-07T11:34:47;74926.69;;;-149.71;68.65
53916;BME280;39827;49.652;18.770;2024-01-07T11:37:16;74950.81;;;-149.71;67.99
53916;BME280;39827;49.652;18.770;2024-01-07T11:39:43;74950.81;;;-149.71;66.17
53916;BME280;39827;49.652;18.770;2024-01-07T11:42:09;74946.78;;;-149.71;67.44
53916;BME280;39827;49.652;18.770;2024-01-07T11:44:35;74974.91;;;-149.71;68.97
53916;BME280;39827;49.652;18.770;2024-01-07T11:47:04;74978.94;;;-149.71;70.21
53916;BME280;39827;49.652;18.770;2024-01-07T11:49:32;74966.88;;;-149.71;69.41
53916;BME280;39827;49.652;18.770;2024-01-07T11:51:58;74972.91;;;-149.71;69.24
53916;BME280;39827;49.652;18.770;2024-01-07T11:54:25;74978.94;;;-149.71;68.07
53916;BME280;39827;49.652;18.770;2024-01-07T11:56:51;74988.97;;;-149.71;68.45
53916;BME280;39827;49.652;18.770;2024-01-07T11:59:17;75019.13;;;-149.71;67.98
53916;BME280;39827;49.652;18.770;2024-01-07T12:01:43;74995.00;;;-149.71;67.86
53916;BME280;39827;49.652;18.770;2024-01-07T12:04:09;75011.09;;;-149.71;68.18
53916;BME280;39827;49.652;18.770;2024-01-07T12:06:35;75015.09;;;-149.71;68.66
53916;BME280;39827;49.652;18.770;2024-01-07T12:09:01;75015.09;;;-149.71;67.53
53916;BME280;39827;49.652;18.770;2024-01-07T12:11:26;75005.06;;;-149.71;68.77
53916;BME280;39827;49.652;18.770;2024-01-07T12:13:52;75031.19;;;-149.71;68.42
53916;BME280;39827;49.652;18.770;2024-01-07T12:16:18;75053.28;;;-149.71;69.55
53916;BME280;39827;49.652;18.770;2024-01-07T12:18:43;75071.38;;;-149.71;70.41
53916;BME280;39827;49.652;18.770;2024-01-07T12:21:09;75075.38;;;-149.71;69.00
53916;BME280;39827;49.652;18.770;2024-01-07T12:23:35;75069.38;;;-149.71;70.33
53916;BME280;39827;49.652;18.770;2024-01-07T12:26:10;75077.41;;;-149.71;71.59
53916;BME280;39827;49.652;18.770;2024-01-07T12:28:36;75061.31;;;-149.71;71.20